Time;durP1;ratioP1;P1;durP2;ratioP2;P2;SDS_P1;SDS_P2;PMS_P1;PMS_P2;Temp;Humidity;BMP_temperature;BMP_pressure;BME280_temperature;BME280_humidity;BME280_pressure;Samples;Min_cycle;Max_cycle;Signal;HPM_P1;HPM_P2
2023/06/12 00:00:47;;;;;;;6.60;2.83;;;22.20;55.00;;;;;;5072818;28;20066;-71
2023/06/12 00:03:13;;;;;;;7.00;3.10;;;22.10;55.20;;;;;;5073338;28;20481;-71
2023/06/12 00:05:43;;;;;;;7.32;2.50;;;22.10;55.20;;;;;;5073728;28;20059;-71
2023/06/12 00:08:11;;;;;;;6.13;2.80;;;22.00;55.60;;;;;;5056847;28;20033;-71
2023/06/12 00:10:39;;;;;;;7.82;2.55;;;21.90;55.70;;;;;;5073360;28;20049;-71
2023/06/12 00:13:05;;;;;;;7.50;2.83;;;21.90;56.00;;;;;;5073496;28;20051;-71
2023/06/12 00:15:31;;;;;;;6.32;2.80;;;21.80;56.10;;;;;;5073284;28;20072;-71
2023/06/12 00:17:57;;;;;;;9.45;2.78;;;21.80;56.30;;;;;;5073483;28;20080;-71
2023/06/12 00:20:22;;;;;;;9.23;3.00;;;21.70;56.40;;;;;;5073165;28;20405;-71
2023/06/12 00:22:48;;;;;;;11.80;2.63;;;21.70;56.50;;;;;;5073803;28;20052;-71
2023/06/12 00:25:13;;;;;;;5.70;2.53;;;21.70;56.80;;;;;;5056722;28;20143;-71
2023/06/12 00:27:39;;;;;;;4.75;2.50;;;21.60;57.00;;;;;;5056486;28;20393;-71
2023/06/12 00:30:05;;;;;;;8.13;2.97;;;21.60;57.00;;;;;;5072929;28;20493;-71
2023/06/12 00:32:31;;;;;;;5.80;2.50;;;21.50;57.00;;;;;;5072866;28;20037;-71
2023/06/12 00:34:57;;;;;;;6.25;2.28;;;21.50;57.30;;;;;;5072828;28;20037;-71
2023/06/12 00:37:24;;;;;;;6.90;2.40;;;21.40;57.40;;;;;;5072827;28;20085;-71
2023/06/12 00:39:51;;;;;;;7.97;2.42;;;21.40;57.50;;;;;;5056442;28;20040;-71
2023/06/12 00:42:17;;;;;;;5.93;2.50;;;21.30;57.60;;;;;;5072678;28;20044;-71
2023/06/12 00:44:42;;;;;;;5.93;2.03;;;21.30;57.70;;;;;;5072681;28;20127;-71
2023/06/12 00:47:10;;;;;;;4.88;2.42;;;21.20;58.00;;;;;;5072558;28;20071;-71
2023/06/12 00:49:36;;;;;;;8.02;2.33;;;21.20;58.30;;;;;;5072820;28;20049;-71
2023/06/12 00:52:02;;;;;;;5.38;2.03;;;21.20;59.10;;;;;;5072495;28;20046;-71
2023/06/12 00:54:30;;;;;;;6.50;2.58;;;21.10;58.50;;;;;;5072483;28;20036;-71
2023/06/12 00:56:56;;;;;;;7.35;2.80;;;21.10;58.50;;;;;;5072463;28;20128;-71
2023/06/12 00:59:23;;;;;;;9.40;2.80;;;21.10;58.80;;;;;;5072659;28;20127;-71
2023/06/12 01:01:50;;;;;;;9.57;2.58;;;21.10;59.10;;;;;;5072337;28;20072;-71
2023/06/12 01:04:17;;;;;;;7.07;2.05;;;21.00;59.00;;;;;;5072453;28;20040;-71
2023/06/12 01:06:59;;;;;;;7.90;2.58;;;20.90;59.30;;;;;;5072519;28;20574;-71
2023/06/12 01:10:02;;;;;;;4.30;2.40;;;20.90;59.40;;;;;;5072205;28;20039;-71
2023/06/12 01:12:29;;;;;;;6.18;2.42;;;20.90;59.60;;;;;;5055261;28;20562;-71
2023/06/12 01:14:55;;;;;;;5.20;2.53;;;20.70;59.70;;;;;;5055582;28;20048;-71
2023/06/12 01:17:20;;;;;;;7.57;2.50;;;20.70;59.80;;;;;;5055476;28;20029;-71
2023/06/12 01:19:46;;;;;;;11.48;2.72;;;20.80;59.80;;;;;;5072341;28;20041;-71
2023/06/12 01:22:13;;;;;;;7.70;2.53;;;20.70;60.00;;;;;;5073533;28;20051;-71
2023/06/12 01:24:45;;;;;;;7.68;2.38;;;20.70;60.10;;;;;;5072059;28;20037;-71
2023/06/12 01:27:48;;;;;;;7.07;2.63;;;20.70;60.10;;;;;;5071944;28;20421;-71
2023/06/12 01:30:33;;;;;;;9.63;2.75;;;20.70;60.30;;;;;;5071996;28;20036;-71
2023/06/12 01:33:02;;;;;;;7.45;2.45;;;20.60;60.40;;;;;;5071954;28;20115;-71
2023/06/12 01:35:30;;;;;;;6.47;2.40;;;20.50;60.60;;;;;;5071932;28;20051;-72
2023/06/12 01:38:20;;;;;;;8.18;2.78;;;20.50;60.70;;;;;;5055089;28;20091;-72
2023/06/12 01:40:48;;;;;;;8.82;2.90;;;20.50;60.90;;;;;;5055426;28;20036;-71
2023/06/12 01:43:14;;;;;;;5.32;2.25;;;20.40;61.00;;;;;;5071749;28;20496;-71
2023/06/12 01:45:41;;;;;;;6.43;2.33;;;20.40;61.00;;;;;;5071823;28;20116;-71
2023/06/12 01:48:06;;;;;;;8.57;2.40;;;20.40;61.10;;;;;;5071686;28;20040;-71
2023/06/12 01:50:32;;;;;;;5.57;2.40;;;20.40;61.90;;;;;;5055012;28;20089;-71
2023/06/12 01:52:58;;;;;;;6.78;2.38;;;20.30;61.50;;;;;;5071697;28;20037;-71
2023/06/12 01:55:24;;;;;;;9.05;2.47;;;20.30;61.70;;;;;;5055324;28;20149;-71
2023/06/12 01:57:50;;;;;;;3.63;2.00;;;20.30;61.90;;;;;;5071678;28;20413;-71
2023/06/12 02:00:17;;;;;;;9.13;2.50;;;20.20;61.90;;;;;;5071914;28;20048;-71
2023/06/12 02:02:43;;;;;;;8.55;2.60;;;20.20;62.00;;;;;;5054852;28;20493;-71
2023/06/12 02:05:10;;;;;;;7.80;3.05;;;20.20;62.30;;;;;;5071771;28;20040;-71
2023/06/12 02:07:35;;;;;;;7.35;2.47;;;20.20;62.60;;;;;;5071517;28;20131;-72
2023/06/12 02:10:02;;;;;;;8.18;2.90;;;20.10;62.70;;;;;;5071602;28;20136;-72
2023/06/12 02:12:29;;;;;;;8.13;2.40;;;20.00;63.00;;;;;;5071503;28;20032;-72
2023/06/12 02:14:57;;;;;;;7.68;2.38;;;20.00;63.10;;;;;;5071539;28;20124;-71
2023/06/12 02:17:23;;;;;;;3.88;2.08;;;19.90;63.30;;;;;;5071518;28;20048;-71
2023/06/12 02:19:48;;;;;;;9.18;2.40;;;19.90;63.70;;;;;;5071491;28;20033;-71
2023/06/12 02:22:14;;;;;;;7.45;2.40;;;19.80;63.80;;;;;;5071407;28;20037;-71
2023/06/12 02:24:40;;;;;;;8.85;2.42;;;19.70;64.60;;;;;;5073471;28;20119;-71
2023/06/12 02:27:06;;;;;;;4.35;2.08;;;19.70;64.20;;;;;;5075256;28;20404;-71
2023/06/12 02:29:32;;;;;;;7.03;2.97;;;19.60;64.50;;;;;;5075331;28;20044;-71
2023/06/12 02:31:57;;;;;;;5.70;2.67;;;19.60;64.80;;;;;;5075300;28;20101;-71
2023/06/12 02:34:23;;;;;;;9.70;2.55;;;19.50;65.00;;;;;;5075434;28;20039;-71
2023/06/12 02:36:49;;;;;;;5.22;2.40;;;19.50;65.00;;;;;;5075407;28;20075;-71
2023/06/12 02:39:16;;;;;;;5.22;2.22;;;19.40;65.20;;;;;;5075081;28;20048;-71
2023/06/12 02:41:43;;;;;;;6.88;2.55;;;19.40;65.50;;;;;;5075202;28;20131;-71
2023/06/12 02:44:09;;;;;;;6.25;2.60;;;19.30;65.80;;;;;;5075059;28;20048;-71
2023/06/12 02:46:54;;;;;;;6.63;2.80;;;19.30;66.00;;;;;;5075003;28;20036;-71
2023/06/12 02:49:24;;;;;;;7.70;2.60;;;19.30;66.20;;;;;;5074883;28;20043;-71
2023/06/12 02:51:50;;;;;;;6.30;2.55;;;19.20;66.30;;;;;;5058162;28;20036;-71
2023/06/12 02:54:17;;;;;;;6.55;2.83;;;19.20;66.30;;;;;;5074829;28;20036;-71
2023/06/12 02:56:45;;;;;;;6.93;2.53;;;19.10;66.60;;;;;;5058443;28;20485;-71
2023/06/12 02:59:15;;;;;;;6.72;2.60;;;19.00;66.80;;;;;;5074742;28;20040;-71
2023/06/12 03:01:43;;;;;;;6.60;2.75;;;18.90;67.10;;;;;;5074702;28;20045;-71
2023/06/12 03:04:18;;;;;;;8.05;2.70;;;18.90;67.30;;;;;;5057893;28;20036;-71
2023/06/12 03:06:45;;;;;;;6.88;2.38;;;18.90;67.30;;;;;;5075475;28;20080;-71
2023/06/12 03:09:11;;;;;;;6.40;2.38;;;18.80;67.40;;;;;;5074530;28;20033;-71
2023/06/12 03:11:37;;;;;;;6.90;2.42;;;18.80;67.60;;;;;;5074483;28;20036;-71
2023/06/12 03:14:05;;;;;;;8.98;2.78;;;18.80;67.70;;;;;;5074499;28;20074;-71
2023/06/12 03:16:31;;;;;;;11.18;2.63;;;18.80;67.90;;;;;;5075953;28;20036;-71
2023/06/12 03:18:57;;;;;;;8.50;2.97;;;18.80;67.90;;;;;;5074421;28;20049;-71
2023/06/12 03:21:23;;;;;;;3.67;2.35;;;18.70;68.00;;;;;;5057644;28;20040;-71
2023/06/12 03:23:49;;;;;;;8.70;3.00;;;18.70;68.20;;;;;;5057593;28;20074;-71
2023/06/12 03:26:15;;;;;;;11.18;2.83;;;18.60;68.20;;;;;;5074274;28;20052;-71
2023/06/12 03:28:41;;;;;;;9.30;2.80;;;18.70;68.40;;;;;;5074127;28;20382;-71
2023/06/12 03:31:06;;;;;;;11.35;2.90;;;18.60;68.40;;;;;;5057775;28;20059;-71
2023/06/12 03:33:32;;;;;;;8.45;3.03;;;18.60;68.50;;;;;;5075852;28;20493;-71
2023/06/12 03:35:57;;;;;;;10.32;2.50;;;18.60;68.80;;;;;;5074032;28;20040;-71
2023/06/12 03:38:23;;;;;;;10.65;2.78;;;18.50;68.90;;;;;;5074090;28;20044;-71
2023/06/12 03:40:49;;;;;;;10.82;2.60;;;18.50;69.10;;;;;;5074195;28;20044;-71
2023/06/12 03:43:14;;;;;;;8.70;2.67;;;18.50;69.10;;;;;;5073898;28;20076;-71
2023/06/12 03:45:40;;;;;;;9.57;2.88;;;18.50;69.10;;;;;;5074735;28;20036;-71
2023/06/12 03:48:05;;;;;;;5.43;2.72;;;18.40;69.30;;;;;;5057096;28;20036;-71
2023/06/12 03:50:31;;;;;;;6.97;2.60;;;18.40;69.50;;;;;;5073822;28;20052;-71
2023/06/12 03:52:57;;;;;;;7.43;3.00;;;18.40;69.60;;;;;;5073963;28;20043;-71
2023/06/12 03:55:23;;;;;;;4.72;2.33;;;18.40;69.70;;;;;;5073723;28;20529;-71
2023/06/12 03:57:49;;;;;;;11.18;3.53;;;18.30;70.10;;;;;;5073955;28;20405;-71
2023/06/12 04:00:15;;;;;;;8.07;2.90;;;18.40;70.20;;;;;;5073534;28;20516;-71
2023/06/12 04:02:42;;;;;;;9.27;2.90;;;18.30;70.30;;;;;;5073449;28;20455;-71
2023/06/12 04:05:08;;;;;;;6.45;2.60;;;18.30;70.50;;;;;;5057092;28;20045;-71
2023/06/12 04:07:36;;;;;;;12.80;2.88;;;18.40;70.80;;;;;;5073367;28;20402;-71
2023/06/12 04:10:07;;;;;;;8.90;3.17;;;18.40;71.00;;;;;;5073671;28;20138;-71
2023/06/12 04:12:32;;;;;;;9.60;2.95;;;18.30;71.00;;;;;;5073641;28;20040;-71
2023/06/12 04:14:58;;;;;;;12.18;3.03;;;18.40;71.10;;;;;;5073343;28;20408;-71
2023/06/12 04:17:23;;;;;;;7.60;2.90;;;18.30;71.30;;;;;;5056612;28;20036;-71
2023/06/12 04:19:49;;;;;;;7.32;2.55;;;18.40;71.30;;;;;;5056841;28;20055;-71
2023/06/12 04:22:16;;;;;;;8.73;2.80;;;18.40;71.60;;;;;;5073362;28;20072;-71
2023/06/12 04:24:45;;;;;;;8.85;2.95;;;18.30;71.70;;;;;;5073440;28;20036;-71
2023/06/12 04:27:11;;;;;;;8.48;3.00;;;18.30;71.70;;;;;;5073078;28;20037;-71
2023/06/12 04:29:38;;;;;;;6.57;2.95;;;18.30;71.80;;;;;;5073009;28;20048;-71
2023/06/12 04:32:06;;;;;;;8.52;2.92;;;18.30;71.90;;;;;;5072917;28;20041;-71
2023/06/12 04:34:39;;;;;;;8.77;3.22;;;18.30;72.20;;;;;;5073196;28;20143;-71
2023/06/12 04:37:13;;;;;;;8.90;2.83;;;18.30;72.30;;;;;;5072921;28;20036;-71
2023/06/12 04:39:40;;;;;;;9.27;2.90;;;18.30;72.50;;;;;;5073123;28;20040;-71
2023/06/12 04:42:08;;;;;;;5.57;2.92;;;18.30;72.70;;;;;;5072988;28;20125;-71
2023/06/12 04:44:34;;;;;;;7.18;2.85;;;18.30;72.80;;;;;;5056093;28;20032;-71
2023/06/12 04:47:04;;;;;;;8.10;3.33;;;18.30;72.80;;;;;;5072213;28;20070;-71
2023/06/12 04:49:32;;;;;;;8.35;3.22;;;18.40;73.00;;;;;;5072553;28;20094;-71
2023/06/12 04:52:00;;;;;;;7.32;2.85;;;18.30;73.10;;;;;;5055876;28;20048;-71
2023/06/12 04:54:28;;;;;;;8.55;3.10;;;18.40;73.20;;;;;;5072505;28;20051;-71
2023/06/12 04:56:54;;;;;;;10.93;3.33;;;18.40;73.20;;;;;;5072775;28;20098;-71
2023/06/12 04:59:20;;;;;;;6.68;2.95;;;18.40;73.40;;;;;;5072749;28;20040;-71
2023/06/12 05:01:46;;;;;;;6.10;3.03;;;18.40;73.50;;;;;;5055743;28;20047;-71
2023/06/12 05:04:11;;;;;;;7.18;2.88;;;18.50;73.70;;;;;;5072606;28;20040;-71
2023/06/12 05:06:40;;;;;;;7.32;3.20;;;18.50;73.70;;;;;;5072341;28;20390;-71
2023/06/12 05:09:09;;;;;;;12.02;3.15;;;18.50;73.70;;;;;;5072200;28;20391;-71
2023/06/12 05:11:34;;;;;;;8.02;2.90;;;18.50;73.90;;;;;;5072098;28;20045;-71
2023/06/12 05:14:00;;;;;;;6.53;3.17;;;18.50;73.90;;;;;;5073453;28;20047;-71
2023/06/12 05:16:28;;;;;;;6.68;2.95;;;18.60;74.20;;;;;;5072225;28;20408;-71
2023/06/12 05:18:53;;;;;;;7.70;2.97;;;18.70;74.00;;;;;;5072168;28;20052;-71
2023/06/12 05:21:22;;;;;;;8.10;3.17;;;18.70;73.90;;;;;;5072067;28;20052;-71
2023/06/12 05:23:48;;;;;;;10.27;3.35;;;18.70;73.80;;;;;;5072321;28;20397;-71
2023/06/12 05:26:13;;;;;;;6.65;2.92;;;18.80;73.80;;;;;;5072314;28;20049;-71
2023/06/12 05:28:39;;;;;;;8.68;3.08;;;18.80;73.70;;;;;;5071895;28;20412;-71
2023/06/12 05:31:05;;;;;;;9.55;4.15;;;18.80;73.70;;;;;;5072248;28;20048;-71
2023/06/12 05:33:32;;;;;;;13.32;3.22;;;18.90;73.90;;;;;;5055493;28;20561;-71
2023/06/12 05:35:58;;;;;;;10.15;3.20;;;18.90;73.80;;;;;;5072198;28;20084;-71
2023/06/12 05:38:25;;;;;;;6.05;2.78;;;18.90;73.90;;;;;;5055223;28;20045;-71
2023/06/12 05:40:51;;;;;;;9.15;3.58;;;19.00;74.00;;;;;;5072119;28;20044;-71
2023/06/12 05:43:17;;;;;;;11.77;3.40;;;19.10;74.00;;;;;;5071776;28;20045;-71
2023/06/12 05:45:42;;;;;;;5.28;3.05;;;19.10;74.10;;;;;;5071823;28;20123;-71
2023/06/12 05:48:08;;;;;;;8.85;3.00;;;19.20;73.80;;;;;;5071670;28;20032;-71
2023/06/12 05:50:35;;;;;;;11.88;3.58;;;19.20;73.80;;;;;;5071784;28;20037;-71
2023/06/12 05:53:01;;;;;;;9.18;3.58;;;19.30;73.80;;;;;;5071956;28;20120;-71
2023/06/12 05:55:27;;;;;;;8.25;3.75;;;19.40;73.90;;;;;;5071725;28;20052;-71
2023/06/12 05:57:52;;;;;;;11.20;3.85;;;19.50;73.70;;;;;;5071942;28;20041;-71
2023/06/12 06:00:18;;;;;;;7.60;3.13;;;19.60;73.50;;;;;;5074598;28;20127;-71
2023/06/12 06:02:45;;;;;;;7.95;3.17;;;19.70;73.60;;;;;;5075701;28;20043;-71
2023/06/12 06:05:11;;;;;;;8.45;3.60;;;19.70;73.50;;;;;;5075934;28;20045;-71
2023/06/12 06:07:36;;;;;;;9.57;3.55;;;19.80;73.40;;;;;;5075906;28;20043;-71
2023/06/12 06:10:04;;;;;;;8.23;3.75;;;19.90;73.40;;;;;;5059018;28;20032;-71
2023/06/12 06:12:30;;;;;;;9.35;3.45;;;20.00;73.10;;;;;;5059126;28;20037;-71
2023/06/12 06:14:56;;;;;;;6.30;3.60;;;20.10;73.00;;;;;;5075624;28;20094;-71
2023/06/12 06:17:22;;;;;;;10.85;3.70;;;20.10;73.10;;;;;;5058907;28;20056;-71
2023/06/12 06:19:47;;;;;;;6.63;3.38;;;20.20;72.70;;;;;;5075790;28;20040;-71
2023/06/12 06:22:17;;;;;;;7.72;3.08;;;20.30;72.60;;;;;;5075675;28;20370;-71
2023/06/12 06:24:43;;;;;;;7.03;3.08;;;20.40;72.40;;;;;;5075405;28;20493;-71
2023/06/12 06:27:09;;;;;;;6.13;3.28;;;20.50;72.50;;;;;;5075376;28;20075;-71
2023/06/12 06:29:35;;;;;;;9.50;3.63;;;20.60;72.20;;;;;;5075264;28;20124;-71
2023/06/12 06:32:00;;;;;;;7.50;3.10;;;20.70;72.00;;;;;;5075237;28;20123;-71
2023/06/12 06:34:27;;;;;;;8.20;3.30;;;20.80;71.70;;;;;;5058874;28;20048;-71
2023/06/12 06:36:53;;;;;;;5.40;2.97;;;20.90;71.20;;;;;;5075450;28;20463;-71
2023/06/12 06:39:19;;;;;;;7.43;3.30;;;21.00;70.90;;;;;;5075096;28;20513;-71
2023/06/12 06:41:44;;;;;;;9.57;3.38;;;21.00;71.00;;;;;;5058353;28;20040;-71
2023/06/12 06:44:10;;;;;;;6.38;3.10;;;21.10;70.70;;;;;;5075077;28;20051;-71
2023/06/12 06:46:36;;;;;;;7.43;3.40;;;21.20;70.60;;;;;;5075003;28;20121;-71
2023/06/12 06:49:01;;;;;;;6.38;3.25;;;21.40;70.70;;;;;;5074891;28;20041;-71
2023/06/12 06:51:29;;;;;;;8.90;3.28;;;21.40;70.70;;;;;;5058443;28;20041;-71
2023/06/12 06:53:55;;;;;;;8.50;4.07;;;21.50;70.30;;;;;;5074883;28;20043;-71
2023/06/12 06:56:21;;;;;;;8.43;3.13;;;21.60;70.50;;;;;;5074841;28;20036;-71
2023/06/12 06:58:48;;;;;;;9.25;3.35;;;21.70;70.90;;;;;;5075010;28;20115;-71
2023/06/12 07:01:15;;;;;;;5.78;2.83;;;21.80;70.80;;;;;;5075011;28;20044;-71
2023/06/12 07:03:41;;;;;;;14.82;3.78;;;21.90;70.90;;;;;;5058119;28;20036;-71
2023/06/12 07:06:07;;;;;;;6.90;3.40;;;22.00;70.80;;;;;;5074671;28;20482;-72
2023/06/12 07:08:33;;;;;;;9.15;3.45;;;22.10;69.80;;;;;;5074526;28;20565;-72
2023/06/12 07:10:58;;;;;;;10.98;3.58;;;22.20;69.60;;;;;;5075436;28;20044;-71
2023/06/12 07:13:24;;;;;;;8.50;3.05;;;22.20;69.30;;;;;;5074723;28;20079;-71
2023/06/12 07:15:51;;;;;;;8.40;3.47;;;22.30;69.40;;;;;;5074451;28;20533;-71
2023/06/12 07:18:17;;;;;;;9.07;3.33;;;22.40;69.90;;;;;;5074438;28;20455;-71
2023/06/12 07:20:43;;;;;;;6.70;3.17;;;22.50;69.60;;;;;;5074652;28;20073;-71
2023/06/12 07:23:09;;;;;;;8.13;3.63;;;22.70;69.00;;;;;;5074303;28;20497;-71
2023/06/12 07:25:34;;;;;;;9.60;3.60;;;22.80;68.70;;;;;;5074553;28;20094;-71
2023/06/12 07:28:03;;;;;;;5.65;3.30;;;22.90;69.10;;;;;;5057811;28;20413;-71
2023/06/12 07:30:29;;;;;;;8.82;3.45;;;23.00;69.10;;;;;;5074176;28;20048;-71
2023/06/12 07:32:55;;;;;;;8.23;3.60;;;23.10;68.50;;;;;;5057352;28;20117;-71
2023/06/12 07:35:20;;;;;;;6.68;3.40;;;23.20;68.30;;;;;;5074156;28;20036;-71
2023/06/12 07:37:46;;;;;;;12.32;3.92;;;23.20;68.10;;;;;;5057441;28;20113;-71
2023/06/12 07:40:13;;;;;;;6.80;3.10;;;23.30;67.60;;;;;;5074072;28;20090;-71
2023/06/12 07:42:38;;;;;;;9.07;3.45;;;23.40;67.30;;;;;;5074326;28;20086;-71
2023/06/12 07:45:05;;;;;;;12.25;3.78;;;23.50;67.70;;;;;;5073927;28;20033;-71
2023/06/12 07:47:30;;;;;;;7.82;3.30;;;23.60;67.80;;;;;;5073798;28;20040;-71
2023/06/12 07:49:56;;;;;;;9.70;3.97;;;23.70;66.80;;;;;;5073866;28;20048;-71
2023/06/12 07:52:22;;;;;;;10.05;3.83;;;23.80;66.40;;;;;;5074085;28;20040;-71
2023/06/12 07:54:49;;;;;;;9.95;3.65;;;23.90;67.00;;;;;;5073735;28;20029;-71
2023/06/12 07:57:14;;;;;;;14.05;3.63;;;24.00;67.00;;;;;;5073749;28;20119;-71
2023/06/12 07:59:40;;;;;;;10.68;3.83;;;24.10;66.80;;;;;;5073612;28;20125;-71
2023/06/12 08:02:06;;;;;;;11.73;3.42;;;24.20;66.80;;;;;;5073814;28;20190;-71
2023/06/12 08:04:33;;;;;;;11.60;4.28;;;24.30;66.50;;;;;;5073470;28;20040;-71
2023/06/12 08:07:00;;;;;;;9.52;4.30;;;24.40;66.50;;;;;;5073524;28;20509;-71
2023/06/12 08:09:26;;;;;;;8.15;3.78;;;24.50;66.40;;;;;;5056688;28;20032;-71
2023/06/12 08:11:52;;;;;;;11.00;4.15;;;24.60;66.00;;;;;;5073313;28;20041;-72
2023/06/12 08:14:18;;;;;;;9.15;3.67;;;24.70;65.40;;;;;;5073338;28;20033;-72
2023/06/12 08:16:45;;;;;;;10.40;3.83;;;24.80;64.40;;;;;;5073334;28;20117;-72
2023/06/12 08:19:12;;;;;;;7.68;3.28;;;24.90;63.90;;;;;;5073288;28;20044;-72
2023/06/12 08:21:39;;;;;;;8.35;3.80;;;25.10;64.00;;;;;;5072283;28;20381;-71
2023/06/12 08:24:07;;;;;;;8.32;4.03;;;25.20;63.00;;;;;;5074713;28;20048;-71
2023/06/12 08:26:33;;;;;;;8.20;3.40;;;25.40;62.00;;;;;;5073382;28;20033;-71
2023/06/12 08:28:59;;;;;;;6.25;3.28;;;25.40;61.90;;;;;;5073086;28;20377;-71
2023/06/12 08:31:24;;;;;;;7.68;3.95;;;25.60;62.20;;;;;;5056560;28;20509;-71
2023/06/12 08:33:50;;;;;;;9.23;3.95;;;25.70;63.10;;;;;;5072997;28;20044;-71
2023/06/12 08:36:15;;;;;;;8.88;4.03;;;25.80;63.00;;;;;;5073158;28;20075;-71
2023/06/12 08:38:41;;;;;;;11.80;3.42;;;26.00;61.70;;;;;;5056217;28;20379;-71
2023/06/12 08:41:07;;;;;;;9.27;3.70;;;26.10;61.90;;;;;;5073087;28;20048;-71
2023/06/12 08:43:33;;;;;;;7.15;3.50;;;26.30;61.60;;;;;;5072966;28;20040;-71
2023/06/12 08:46:03;;;;;;;6.78;3.08;;;26.40;61.10;;;;;;5072994;28;20037;-71
2023/06/12 08:48:29;;;;;;;10.52;3.95;;;26.50;59.80;;;;;;5072571;28;20037;-71
2023/06/12 08:50:55;;;;;;;9.70;3.42;;;26.60;59.80;;;;;;5072868;28;20505;-71
2023/06/12 08:53:22;;;;;;;7.05;3.55;;;26.60;60.00;;;;;;5055943;28;20125;-71
2023/06/12 08:55:50;;;;;;;10.48;3.60;;;26.70;60.20;;;;;;5072511;28;20036;-71
2023/06/12 08:58:15;;;;;;;5.88;3.58;;;26.80;59.70;;;;;;5072509;28;20041;-71
2023/06/12 09:00:41;;;;;;;7.15;3.28;;;26.90;59.20;;;;;;5072475;28;20086;-71
2023/06/12 09:03:07;;;;;;;8.90;3.67;;;27.00;59.20;;;;;;5055597;28;20048;-71
2023/06/12 09:05:38;;;;;;;7.97;3.60;;;27.10;59.20;;;;;;5072546;28;20040;-71
2023/06/12 09:08:05;;;;;;;6.15;3.58;;;27.20;59.50;;;;;;5072322;28;20048;-72
2023/06/12 09:10:33;;;;;;;14.65;3.13;;;27.30;58.90;;;;;;5072366;28;20557;-72
2023/06/12 09:13:01;;;;;;;8.88;3.42;;;27.40;59.20;;;;;;5072173;28;20037;-72
2023/06/12 09:15:27;;;;;;;7.63;4.50;;;27.50;58.00;;;;;;5055565;28;20051;-72
2023/06/12 09:17:55;;;;;;;7.40;3.30;;;27.60;58.20;;;;;;5072111;28;20456;-72
2023/06/12 09:20:26;;;;;;;7.15;3.65;;;27.80;58.20;;;;;;5072138;28;20040;-72
2023/06/12 09:22:51;;;;;;;12.27;3.25;;;27.90;57.40;;;;;;5072044;28;20140;-72
2023/06/12 09:25:21;;;;;;;20.80;3.97;;;27.90;57.40;;;;;;5072330;28;20040;-72
2023/06/12 09:27:47;;;;;;;11.02;3.78;;;28.00;58.40;;;;;;5073248;28;20040;-72
2023/06/12 09:30:13;;;;;;;7.13;3.30;;;28.20;57.80;;;;;;5055352;28;20036;-72
2023/06/12 09:32:44;;;;;;;6.00;3.40;;;28.40;57.30;;;;;;5072447;28;20079;-72
2023/06/12 09:35:12;;;;;;;6.30;3.42;;;28.50;57.20;;;;;;5071943;28;20075;-71
2023/06/12 09:37:39;;;;;;;7.60;3.65;;;28.70;56.10;;;;;;5071860;28;20115;-71
2023/06/12 09:40:13;;;;;;;9.15;3.90;;;28.80;55.60;;;;;;5071893;28;20040;-71
2023/06/12 09:42:40;;;;;;;9.57;3.60;;;28.90;54.90;;;;;;5072019;28;20048;-71
2023/06/12 09:45:13;;;;;;;7.63;3.47;;;29.00;54.50;;;;;;5072189;28;20048;-72
2023/06/12 09:47:48;;;;;;;4.65;2.95;;;29.10;54.90;;;;;;5071862;28;20041;-72
2023/06/12 09:50:15;;;;;;;6.10;3.58;;;29.20;54.60;;;;;;5071794;28;20039;-72
2023/06/12 09:52:43;;;;;;;8.95;3.53;;;29.30;52.80;;;;;;5071685;28;20048;-72
2023/06/12 09:55:15;;;;;;;11.55;3.85;;;29.40;52.30;;;;;;5071757;28;20037;-72
2023/06/12 09:57:48;;;;;;;8.60;3.65;;;29.60;51.10;;;;;;5071735;28;20032;-72
2023/06/12 10:00:16;;;;;;;8.45;3.70;;;29.70;51.20;;;;;;5072042;28;20133;-72
2023/06/12 10:02:50;;;;;;;6.68;4.20;;;29.80;51.00;;;;;;5071617;28;20090;-72
2023/06/12 10:05:23;;;;;;;5.65;3.50;;;29.90;50.20;;;;;;5071661;28;20128;-72
2023/06/12 10:07:52;;;;;;;9.18;4.18;;;30.00;50.90;;;;;;5054799;28;20124;-72
2023/06/12 10:10:19;;;;;;;8.77;3.33;;;30.10;50.50;;;;;;5073108;28;20041;-72
2023/06/12 10:12:45;;;;;;;7.05;3.88;;;30.20;50.80;;;;;;5071529;28;20041;-72
2023/06/12 10:15:12;;;;;;;7.18;4.40;;;30.30;50.00;;;;;;5071868;28;20106;-72
2023/06/12 10:17:40;;;;;;;8.10;4.05;;;30.50;48.50;;;;;;5072740;28;20082;-72
2023/06/12 10:20:09;;;;;;;7.32;4.70;;;30.60;48.60;;;;;;5073056;28;20033;-72
2023/06/12 10:22:35;;;;;;;6.95;4.18;;;30.60;47.80;;;;;;5071759;28;20033;-72
2023/06/12 10:25:02;;;;;;;6.80;3.88;;;30.80;47.90;;;;;;5071542;28;20044;-72
2023/06/12 10:27:29;;;;;;;8.85;4.25;;;30.80;48.20;;;;;;5071366;28;20040;-71
2023/06/12 10:29:57;;;;;;;6.35;4.50;;;30.90;48.60;;;;;;5071510;28;20115;-71
2023/06/12 10:32:23;;;;;;;5.78;4.20;;;31.00;47.20;;;;;;5071689;28;20036;-72
2023/06/12 10:34:56;;;;;;;8.80;4.60;;;31.20;46.80;;;;;;5071226;28;20413;-72
2023/06/12 10:37:22;;;;;;;8.30;4.95;;;31.30;46.40;;;;;;5071491;28;20040;-72
2023/06/12 10:39:49;;;;;;;11.18;5.03;;;31.50;45.70;;;;;;5071331;28;20047;-72
2023/06/12 10:42:16;;;;;;;6.65;4.63;;;31.60;44.70;;;;;;5071298;28;20127;-72
2023/06/12 10:44:46;;;;;;;9.98;5.03;;;31.80;43.20;;;;;;5071401;28;20040;-72
2023/06/12 10:47:20;;;;;;;8.98;4.60;;;31.90;42.30;;;;;;5076138;28;20051;-72
2023/06/12 10:50:00;;;;;;;5.05;4.13;;;32.00;41.20;;;;;;5074966;28;20090;-72
2023/06/12 10:52:26;;;;;;;7.03;4.22;;;32.20;42.40;;;;;;5058170;28;20040;-72
2023/06/12 10:55:13;;;;;;;8.30;4.50;;;32.30;42.20;;;;;;5074917;28;20040;-72
2023/06/12 10:57:39;;;;;;;9.65;4.57;;;32.40;41.50;;;;;;5075041;28;20174;-72
2023/06/12 11:00:08;;;;;;;6.05;4.28;;;32.30;40.70;;;;;;5075087;28;20119;-72
2023/06/12 11:02:34;;;;;;;5.88;4.75;;;32.40;39.90;;;;;;5074774;28;20123;-72
2023/06/12 11:05:04;;;;;;;6.47;4.30;;;32.30;39.70;;;;;;5074606;28;20536;-72
2023/06/12 11:07:33;;;;;;;7.05;4.38;;;32.40;40.00;;;;;;5075433;28;20033;-72
2023/06/12 11:10:08;;;;;;;7.38;4.40;;;32.60;39.90;;;;;;5074837;28;20063;-72
2023/06/12 11:12:33;;;;;;;5.78;4.75;;;32.70;39.50;;;;;;5074818;28;20080;-72
2023/06/12 11:14:59;;;;;;;7.28;5.00;;;32.70;39.40;;;;;;5074617;28;20460;-72
2023/06/12 11:17:25;;;;;;;6.95;4.47;;;32.80;39.10;;;;;;5074552;28;20124;-72
2023/06/12 11:19:59;;;;;;;7.78;4.32;;;32.90;39.20;;;;;;5074430;28;20040;-72
2023/06/12 11:22:24;;;;;;;6.07;4.82;;;32.90;39.00;;;;;;5074375;28;20115;-72
2023/06/12 11:24:57;;;;;;;6.50;4.50;;;32.90;39.00;;;;;;5074579;28;20124;-72
2023/06/12 11:27:23;;;;;;;5.18;4.32;;;33.00;39.40;;;;;;5074591;28;20048;-72
2023/06/12 11:29:49;;;;;;;8.23;4.85;;;33.30;38.70;;;;;;5074135;28;20493;-72
2023/06/12 11:32:17;;;;;;;7.47;4.32;;;33.30;40.10;;;;;;5074125;28;20068;-72
2023/06/12 11:34:42;;;;;;;9.57;4.53;;;33.50;39.70;;;;;;5074183;28;20040;-72
2023/06/12 11:37:17;;;;;;;5.85;4.43;;;33.50;39.60;;;;;;5074139;28;20036;-72
2023/06/12 11:39:43;;;;;;;6.90;4.57;;;33.70;40.00;;;;;;5074049;28;20041;-72
2023/06/12 11:42:10;;;;;;;7.38;4.88;;;33.70;39.20;;;;;;5073932;28;20052;-72
2023/06/12 11:44:37;;;;;;;6.97;4.35;;;33.90;38.10;;;;;;5073945;28;20048;-72
2023/06/12 11:47:04;;;;;;;9.63;4.53;;;34.00;36.40;;;;;;5074195;28;20105;-72
2023/06/12 11:49:31;;;;;;;7.93;4.45;;;33.90;37.70;;;;;;5073754;28;20051;-72
2023/06/12 11:51:57;;;;;;;11.77;4.90;;;33.60;37.50;;;;;;5074037;28;20044;-72
2023/06/12 11:54:23;;;;;;;6.65;4.90;;;33.30;37.50;;;;;;5073786;28;20382;-72
2023/06/12 11:56:49;;;;;;;8.95;4.97;;;33.00;37.60;;;;;;5072482;28;20045;-72
2023/06/12 11:59:15;;;;;;;5.68;4.70;;;32.80;38.70;;;;;;5074251;28;20058;-72
2023/06/12 12:01:48;;;;;;;8.82;4.47;;;32.80;38.20;;;;;;5073789;28;20396;-72
2023/06/12 12:04:17;;;;;;;10.48;5.00;;;33.10;38.40;;;;;;5073476;28;20047;-72
2023/06/12 12:06:50;;;;;;;6.63;4.53;;;33.20;37.50;;;;;;5073553;28;20032;-72
2023/06/12 12:09:23;;;;;;;7.10;4.47;;;33.30;37.90;;;;;;5073518;28;20064;-72
2023/06/12 12:11:49;;;;;;;7.97;5.53;;;33.60;36.40;;;;;;5073401;28;20055;-72
2023/06/12 12:14:15;;;;;;;9.13;4.90;;;33.40;35.80;;;;;;5073431;28;20162;-72
2023/06/12 12:16:43;;;;;;;7.68;5.13;;;33.30;37.20;;;;;;5073598;28;20035;-72
2023/06/12 12:19:35;;;;;;;7.28;4.90;;;33.30;36.80;;;;;;5073266;28;20097;-72
2023/06/12 12:22:00;;;;;;;5.45;4.90;;;33.10;36.30;;;;;;5071355;28;20114;-72
2023/06/12 12:24:34;;;;;;;7.50;4.72;;;33.20;37.00;;;;;;5056809;28;20052;-72
2023/06/12 12:27:00;;;;;;;8.43;5.25;;;33.20;36.40;;;;;;5073185;28;20119;-72
2023/06/12 12:29:26;;;;;;;6.78;4.82;;;33.00;36.80;;;;;;5073004;28;20119;-72
2023/06/12 12:31:51;;;;;;;6.65;5.25;;;32.70;36.70;;;;;;5073001;28;20037;-72
2023/06/12 12:34:17;;;;;;;6.05;5.35;;;32.40;36.50;;;;;;5073276;28;20076;-72
2023/06/12 12:36:42;;;;;;;7.72;5.47;;;32.10;36.50;;;;;;5072983;28;20480;-72
2023/06/12 12:39:09;;;;;;;5.80;5.10;;;32.20;37.60;;;;;;5072870;28;20101;-72
2023/06/12 12:41:36;;;;;;;7.38;5.15;;;32.20;37.70;;;;;;5056450;28;20048;-72
2023/06/12 12:44:01;;;;;;;7.15;4.95;;;32.20;37.50;;;;;;5072761;28;20048;-72
2023/06/12 12:46:27;;;;;;;7.57;4.93;;;32.00;37.50;;;;;;5072737;28;20044;-72